createdAt,value
2023-09-10T00:01:01.775Z,11.77
2023-09-10T00:03:28.716Z,11.84
2023-09-10T00:05:55.930Z,11.79
2023-09-10T00:08:22.702Z,11.76
2023-09-10T00:10:49.729Z,11.65
2023-09-10T00:13:16.551Z,11.66
2023-09-10T00:15:43.249Z,11.73
2023-09-10T00:18:10.097Z,11.77
2023-09-10T00:20:39.730Z,11.77
2023-09-10T00:23:06.647Z,11.69
2023-09-10T00:25:33.463Z,11.70
2023-09-10T00:28:00.267Z,11.77
2023-09-10T00:30:30.293Z,11.86
2023-09-10T00:32:57.178Z,11.97
2023-09-10T00:35:23.914Z,11.94
2023-09-10T00:37:50.803Z,11.85
2023-09-10T00:40:17.564Z,11.74
2023-09-10T00:42:44.237Z,11.66
2023-09-10T00:45:15.633Z,11.61
2023-09-10T00:47:46.071Z,11.54
2023-09-10T00:50:14.928Z,11.57
2023-09-10T00:52:51.266Z,11.42
2023-09-10T00:55:19.845Z,11.35
2023-09-10T00:57:46.736Z,11.41
2023-09-10T01:00:14.536Z,11.46
2023-09-10T01:02:44.772Z,11.47
2023-09-10T01:05:13.015Z,11.45
2023-09-10T01:07:39.926Z,11.49
2023-09-10T01:10:07.895Z,11.44
2023-09-10T01:12:46.848Z,11.40
2023-09-10T01:15:27.790Z,11.44
2023-09-10T01:18:14.980Z,11.28
2023-09-10T01:21:09.707Z,11.18
2023-09-10T01:23:49.291Z,11.26
2023-09-10T01:26:15.968Z,11.32
2023-09-10T01:28:42.854Z,11.32
2023-09-10T01:31:09.692Z,11.42
2023-09-10T01:33:43.111Z,11.51
2023-09-10T01:36:16.248Z,11.48
2023-09-10T01:38:55.314Z,11.31
2023-09-10T01:41:22.683Z,11.37
2023-09-10T01:43:51.677Z,11.52
2023-09-10T01:46:20.378Z,11.50
2023-09-10T01:48:48.094Z,11.50
2023-09-10T01:51:14.683Z,11.43
2023-09-10T01:53:41.403Z,11.45
2023-09-10T01:56:08.307Z,11.47
2023-09-10T01:58:35.373Z,11.34
2023-09-10T02:01:02.149Z,11.35
2023-09-10T02:03:29.167Z,11.42
2023-09-10T02:05:59.023Z,11.50
2023-09-10T02:08:26.118Z,11.59
2023-09-10T02:10:52.895Z,11.58
2023-09-10T02:13:19.661Z,11.67
2023-09-10T02:15:46.584Z,11.64
2023-09-10T02:18:13.391Z,11.54
2023-09-10T02:20:40.162Z,11.29
2023-09-10T02:23:07.076Z,11.11
2023-09-10T02:25:34.358Z,11.09
2023-09-10T02:28:02.540Z,11.13
2023-09-10T02:30:29.296Z,11.16
2023-09-10T02:32:56.825Z,11.24
2023-09-10T02:35:24.416Z,11.42
2023-09-10T02:37:51.234Z,11.47
2023-09-10T02:40:18.085Z,11.46
2023-09-10T02:42:44.840Z,11.45
2023-09-10T02:45:12.942Z,11.28
2023-09-10T02:47:40.049Z,11.33
2023-09-10T02:50:07.165Z,11.38
2023-09-10T02:52:33.888Z,11.49
2023-09-10T02:55:00.934Z,11.35
2023-09-10T02:57:27.721Z,11.21
2023-09-10T02:59:54.415Z,11.39
2023-09-10T03:02:21.231Z,11.56
2023-09-10T03:04:48.155Z,11.70
2023-09-10T03:07:15.075Z,11.87
2023-09-10T03:09:41.794Z,12.01
2023-09-10T03:12:21.059Z,12.04
2023-09-10T03:14:47.804Z,12.01
2023-09-10T03:17:14.792Z,12.01
2023-09-10T03:19:42.029Z,11.99
2023-09-10T03:22:08.778Z,11.93
2023-09-10T03:24:36.194Z,11.76
2023-09-10T03:27:03.194Z,11.68
2023-09-10T03:29:31.556Z,11.60
2023-09-10T03:31:58.317Z,11.62
2023-09-10T03:34:25.089Z,11.71
2023-09-10T03:36:51.784Z,11.85
2023-09-10T03:39:18.565Z,12.10
2023-09-10T03:41:46.478Z,12.48
2023-09-10T03:44:13.326Z,12.51
2023-09-10T03:46:40.209Z,12.29
2023-09-10T03:49:07.013Z,12.23
2023-09-10T03:51:33.781Z,12.25
2023-09-10T03:54:00.508Z,12.49
2023-09-10T03:56:27.297Z,12.64
2023-09-10T03:58:54.057Z,12.84
2023-09-10T04:01:20.843Z,13.15
2023-09-10T04:03:47.654Z,13.31
2023-09-10T04:06:14.422Z,13.55
2023-09-10T04:08:41.231Z,13.86
2023-09-10T04:11:10.236Z,14.19
2023-09-10T04:13:38.386Z,14.42
2023-09-10T04:16:05.084Z,14.66
2023-09-10T04:18:31.866Z,14.87
2023-09-10T04:20:58.639Z,15.08
2023-09-10T04:23:25.437Z,15.20
2023-09-10T04:25:52.250Z,15.22
2023-09-10T04:28:19.064Z,15.07
2023-09-10T04:30:45.816Z,14.95
2023-09-10T04:33:13.221Z,14.90
2023-09-10T04:35:48.672Z,14.85
2023-09-10T04:38:15.414Z,14.65
2023-09-10T04:40:43.262Z,14.60
2023-09-10T04:43:10.081Z,14.53
2023-09-10T04:45:37.391Z,14.31
2023-09-10T04:48:05.464Z,14.27
2023-09-10T04:50:32.635Z,14.30
2023-09-10T04:53:02.013Z,14.31
2023-09-10T04:55:28.720Z,14.38
2023-09-10T04:57:55.430Z,14.40
2023-09-10T05:00:22.399Z,14.42
2023-09-10T05:02:49.271Z,14.43
2023-09-10T05:05:16.315Z,14.45
2023-09-10T05:07:43.116Z,14.56
2023-09-10T05:10:11.770Z,14.58
2023-09-10T05:12:38.445Z,14.54
2023-09-10T05:15:05.713Z,14.60
2023-09-10T05:17:32.498Z,14.66
2023-09-10T05:19:59.325Z,14.80
2023-09-10T05:22:26.072Z,14.94
2023-09-10T05:24:52.890Z,15.12
2023-09-10T05:27:19.577Z,15.38
2023-09-10T05:29:46.288Z,15.63
2023-09-10T05:32:13.119Z,15.84
2023-09-10T05:34:39.961Z,16.06
2023-09-10T05:37:06.709Z,16.49
2023-09-10T05:39:34.536Z,17.22
2023-09-10T05:42:01.313Z,17.64
2023-09-10T05:44:28.017Z,18.03
2023-09-10T05:46:54.811Z,18.36
2023-09-10T05:49:21.559Z,18.67
2023-09-10T05:51:48.280Z,18.95
2023-09-10T05:54:17.537Z,19.08
2023-09-10T05:56:44.626Z,19.29
2023-09-10T05:59:11.392Z,19.38
2023-09-10T06:01:38.191Z,19.39
2023-09-10T06:04:05.265Z,19.63
2023-09-10T06:06:32.103Z,19.82
2023-09-10T06:08:58.927Z,19.78
2023-09-10T06:11:25.803Z,19.89
2023-09-10T06:13:52.554Z,20.02
2023-09-10T06:16:19.369Z,19.93
2023-09-10T06:18:48.971Z,20.01
2023-09-10T06:21:15.708Z,20.14
2023-09-10T06:23:42.457Z,20.17
2023-09-10T06:26:09.245Z,20.36
2023-09-10T06:28:36.267Z,20.32
2023-09-10T06:31:03.009Z,20.57
2023-09-10T06:33:29.774Z,20.52
2023-09-10T06:35:56.867Z,20.71
2023-09-10T06:38:23.784Z,20.69
2023-09-10T06:40:52.442Z,20.73
2023-09-10T06:43:19.289Z,20.89
2023-09-10T06:45:46.117Z,20.76
2023-09-10T06:48:12.919Z,20.89
2023-09-10T06:50:39.679Z,20.76
2023-09-10T06:53:06.397Z,20.92
2023-09-10T06:55:33.092Z,20.78
2023-09-10T06:57:59.796Z,20.33
2023-09-10T07:00:26.593Z,20.03
2023-09-10T07:02:53.416Z,19.86
2023-09-10T07:05:20.401Z,19.81
2023-09-10T07:07:47.318Z,19.86
2023-09-10T07:10:14.088Z,19.99
2023-09-10T07:12:40.742Z,20.12
2023-09-10T07:15:07.837Z,20.46
2023-09-10T07:17:34.690Z,20.57
2023-09-10T07:20:01.424Z,20.60
2023-09-10T07:22:28.167Z,20.53
2023-09-10T07:24:54.840Z,21.08
2023-09-10T07:27:21.573Z,21.47
2023-09-10T07:29:49.629Z,21.62
2023-09-10T07:32:16.336Z,21.42
2023-09-10T07:34:43.061Z,21.00
2023-09-10T07:37:11.214Z,20.68
2023-09-10T07:39:39.110Z,20.67
2023-09-10T07:42:05.879Z,21.02
2023-09-10T07:44:32.713Z,21.62
2023-09-10T07:46:59.543Z,21.65
2023-09-10T07:49:26.279Z,21.44
2023-09-10T07:51:52.983Z,21.95
2023-09-10T07:54:19.788Z,22.18
2023-09-10T07:56:47.112Z,22.00
2023-09-10T07:59:13.927Z,21.83
2023-09-10T08:01:40.632Z,22.33
2023-09-10T08:04:07.684Z,22.42
2023-09-10T08:06:34.433Z,22.46
2023-09-10T08:09:01.140Z,22.13
2023-09-10T08:11:28.139Z,21.86
2023-09-10T08:13:54.885Z,22.23
2023-09-10T08:16:21.798Z,22.02
2023-09-10T08:18:48.641Z,22.06
2023-09-10T08:21:15.394Z,21.83
2023-09-10T08:23:43.892Z,22.25
2023-09-10T08:26:10.799Z,21.97
2023-09-10T08:28:37.822Z,22.59
2023-09-10T08:31:05.534Z,22.37
2023-09-10T08:33:35.643Z,22.08
2023-09-10T08:36:02.430Z,22.43
2023-09-10T08:38:29.224Z,22.76
2023-09-10T08:41:05.871Z,22.81
2023-09-10T08:43:57.095Z,22.57
2023-09-10T08:46:31.523Z,22.72
2023-09-10T08:49:00.092Z,23.01
2023-09-10T08:51:28.638Z,23.21
2023-09-10T08:53:58.361Z,22.93
2023-09-10T08:56:26.919Z,23.24
2023-09-10T08:58:55.174Z,23.16
2023-09-10T09:01:24.992Z,22.78
2023-09-10T09:03:57.847Z,23.15
2023-09-10T09:06:29.828Z,22.88
2023-09-10T09:08:58.352Z,23.03
2023-09-10T09:11:26.544Z,23.16
2023-09-10T09:13:55.330Z,23.10
2023-09-10T09:16:22.135Z,23.53
2023-09-10T09:18:50.067Z,23.51
2023-09-10T09:21:22.100Z,23.40
2023-09-10T09:24:02.831Z,23.56
2023-09-10T09:26:30.504Z,23.31
2023-09-10T09:28:57.758Z,23.05
2023-09-10T09:31:25.758Z,22.69
2023-09-10T09:33:53.355Z,22.98
2023-09-10T09:36:20.122Z,23.05
2023-09-10T09:38:48.999Z,22.76
2023-09-10T09:41:16.684Z,22.89
2023-09-10T09:43:44.210Z,22.52
2023-09-10T09:46:11.235Z,22.31
2023-09-10T09:48:39.285Z,22.32
2023-09-10T09:51:07.157Z,22.77
2023-09-10T09:53:35.184Z,23.16
2023-09-10T09:56:06.739Z,22.70
2023-09-10T09:58:34.632Z,22.82
2023-09-10T10:01:02.266Z,22.52
2023-09-10T10:03:34.891Z,22.69
2023-09-10T10:06:03.160Z,23.11
2023-09-10T10:08:30.959Z,22.64
2023-09-10T10:10:58.306Z,22.75
2023-09-10T10:13:25.685Z,23.07
2023-09-10T10:15:55.181Z,23.18
2023-09-10T10:18:23.631Z,23.19
2023-09-10T10:20:51.343Z,22.95
2023-09-10T10:23:26.194Z,23.04
2023-09-10T10:25:54.662Z,23.29
2023-09-10T10:28:22.134Z,23.23
2023-09-10T10:31:05.997Z,23.17
2023-09-10T10:33:35.114Z,22.59
2023-09-10T10:36:11.551Z,23.12
2023-09-10T10:38:44.505Z,23.06
2023-09-10T10:41:17.913Z,22.83
2023-09-10T10:44:11.676Z,23.27
2023-09-10T10:46:41.406Z,23.18
2023-09-10T10:49:08.964Z,23.08
2023-09-10T10:51:55.321Z,23.20
2023-09-10T10:54:24.176Z,22.96
2023-09-10T10:56:51.340Z,23.06
2023-09-10T10:59:19.197Z,23.13
2023-09-10T11:02:11.580Z,22.97
2023-09-10T11:04:38.489Z,23.08
2023-09-10T11:07:21.523Z,22.75
2023-09-10T11:09:49.157Z,22.68
2023-09-10T11:12:17.001Z,22.82
2023-09-10T11:15:01.827Z,22.85
2023-09-10T11:17:30.533Z,22.45
2023-09-10T11:19:57.495Z,22.62
2023-09-10T11:22:24.314Z,22.96
2023-09-10T11:25:08.081Z,22.96
2023-09-10T11:27:35.686Z,22.80
2023-09-10T11:30:06.745Z,22.49
2023-09-10T11:32:33.753Z,22.76
2023-09-10T11:35:18.961Z,22.72
2023-09-10T11:37:53.086Z,22.79
2023-09-10T11:40:21.179Z,22.40
2023-09-10T11:42:49.552Z,22.64
2023-09-10T11:45:17.531Z,22.51
2023-09-10T11:47:51.675Z,22.52
2023-09-10T11:50:24.957Z,22.45
2023-09-10T11:55:19.877Z,22.57
2023-09-10T11:57:47.840Z,22.45
2023-09-10T12:00:17.476Z,22.39
2023-09-10T12:02:44.994Z,22.21
2023-09-10T12:05:12.235Z,22.27
2023-09-10T12:07:44.468Z,22.17
2023-09-10T12:12:39.022Z,22.32
2023-09-10T12:15:06.122Z,22.33
2023-09-10T12:17:34.132Z,22.52
2023-09-10T12:20:01.245Z,22.22
2023-09-10T12:22:28.029Z,22.31
2023-09-10T12:24:54.869Z,22.23
2023-09-10T12:27:22.980Z,22.21
2023-09-10T12:29:52.038Z,22.08
2023-09-10T12:32:18.808Z,22.24
2023-09-10T12:34:45.855Z,22.08
2023-09-10T12:37:19.348Z,21.93
2023-09-10T12:39:46.547Z,22.02
2023-09-10T12:42:15.618Z,22.09
2023-09-10T12:44:42.471Z,21.89
2023-09-10T12:47:13.893Z,21.98
2023-09-10T12:49:41.809Z,21.87
2023-09-10T12:52:08.764Z,21.83
2023-09-10T12:54:36.063Z,21.94
2023-09-10T12:57:06.170Z,21.76
2023-09-10T12:59:33.114Z,21.68
2023-09-10T13:02:03.410Z,21.66
2023-09-10T13:04:30.175Z,21.66
2023-09-10T13:06:56.989Z,21.53
2023-09-10T13:09:23.708Z,21.66
2023-09-10T13:11:50.396Z,21.55
2023-09-10T13:14:18.695Z,21.56
2023-09-10T13:16:45.480Z,21.47
2023-09-10T13:19:12.424Z,21.34
2023-09-10T13:21:39.325Z,21.48
2023-09-10T13:24:06.455Z,21.54
2023-09-10T13:26:33.208Z,21.36
2023-09-10T13:28:59.946Z,21.12
2023-09-10T13:31:27.318Z,21.31
2023-09-10T13:33:54.082Z,21.18
2023-09-10T13:36:20.863Z,20.74
2023-09-10T13:38:48.833Z,20.99
2023-09-10T13:41:15.931Z,21.01
2023-09-10T13:43:43.169Z,21.00
2023-09-10T13:46:10.236Z,20.91
2023-09-10T13:48:37.112Z,20.53
2023-09-10T13:51:04.010Z,20.72
2023-09-10T13:53:30.888Z,20.92
2023-09-10T13:55:57.753Z,20.98
2023-09-10T13:58:24.497Z,20.73
2023-09-10T14:00:51.191Z,20.62
2023-09-10T14:03:17.987Z,20.67
2023-09-10T14:05:44.897Z,20.60
2023-09-10T14:08:11.822Z,20.58
2023-09-10T14:10:38.706Z,20.48
2023-09-10T14:13:05.452Z,20.45
2023-09-10T14:15:32.267Z,20.23
2023-09-10T14:17:59.043Z,20.26
2023-09-10T14:20:25.951Z,20.27
2023-09-10T14:22:53.578Z,20.21
2023-09-10T14:25:20.535Z,20.17
2023-09-10T14:27:47.881Z,20.22
2023-09-10T14:30:16.046Z,20.13
2023-09-10T14:32:43.119Z,20.05
2023-09-10T14:35:10.210Z,20.09
2023-09-10T14:37:36.990Z,20.04
2023-09-10T14:40:07.339Z,19.94
2023-09-10T14:42:35.346Z,19.81
2023-09-10T14:45:02.087Z,19.84
2023-09-10T14:47:28.895Z,19.82
2023-09-10T14:49:55.634Z,19.83
2023-09-10T14:52:22.566Z,19.69
2023-09-10T14:54:49.468Z,19.60
2023-09-10T14:57:16.198Z,19.53
2023-09-10T14:59:42.910Z,19.63
2023-09-10T15:02:10.192Z,19.56
2023-09-10T15:04:36.897Z,19.47
2023-09-10T15:07:03.757Z,19.43
2023-09-10T15:09:30.617Z,19.37
2023-09-10T15:11:57.328Z,19.28
2023-09-10T15:14:24.196Z,19.22
2023-09-10T15:16:50.978Z,19.28
2023-09-10T15:19:18.163Z,19.27
2023-09-10T15:21:44.992Z,19.31
2023-09-10T15:24:11.782Z,19.27
2023-09-10T15:26:38.550Z,19.08
2023-09-10T15:29:05.426Z,19.01
2023-09-10T15:31:36.404Z,18.95
2023-09-10T15:34:04.094Z,19.01
2023-09-10T15:36:31.033Z,18.95
2023-09-10T15:38:57.753Z,18.85
2023-09-10T15:41:25.149Z,18.75
2023-09-10T15:43:52.318Z,18.72
2023-09-10T15:46:19.121Z,18.75
2023-09-10T15:48:45.805Z,18.57
2023-09-10T15:51:12.539Z,18.58
2023-09-10T15:53:39.785Z,18.54
2023-09-10T15:56:06.766Z,18.38
2023-09-10T15:58:35.635Z,18.36
2023-09-10T16:01:02.505Z,18.27
2023-09-10T16:03:29.333Z,18.24
2023-09-10T16:05:57.772Z,18.15
2023-09-10T16:08:28.613Z,18.04
2023-09-10T16:10:58.256Z,18.00
2023-09-10T16:13:26.716Z,17.98
2023-09-10T16:15:53.567Z,17.87
2023-09-10T16:18:20.358Z,17.74
2023-09-10T16:20:47.286Z,17.66
2023-09-10T16:23:14.099Z,17.62
2023-09-10T16:25:40.821Z,17.52
2023-09-10T16:28:07.605Z,17.47
2023-09-10T16:30:35.512Z,17.39
2023-09-10T16:33:02.316Z,17.31
2023-09-10T16:35:29.122Z,17.17
2023-09-10T16:37:55.924Z,17.15
2023-09-10T16:40:22.783Z,17.06
2023-09-10T16:42:49.611Z,17.03
2023-09-10T16:45:16.637Z,16.98
2023-09-10T16:47:43.364Z,16.91
2023-09-10T16:50:11.817Z,16.83
2023-09-10T16:52:38.620Z,16.72
2023-09-10T16:55:05.522Z,16.60
2023-09-10T16:57:32.344Z,16.58
2023-09-10T16:59:59.064Z,16.45
2023-09-10T17:02:25.902Z,16.44
2023-09-10T17:04:52.758Z,16.33
2023-09-10T17:07:19.552Z,16.29
2023-09-10T17:09:46.393Z,16.23
2023-09-10T17:12:13.255Z,16.11
2023-09-10T17:14:40.065Z,16.11
2023-09-10T17:17:06.867Z,16.05
2023-09-10T17:19:34.519Z,16.03
2023-09-10T17:22:01.212Z,15.93
2023-09-10T17:24:29.850Z,15.93
2023-09-10T17:26:56.562Z,15.87
2023-09-10T17:29:23.388Z,15.78
2023-09-10T17:31:51.336Z,15.71
2023-09-10T17:34:18.094Z,15.68
2023-09-10T17:36:44.867Z,15.60
2023-09-10T17:39:11.630Z,15.57
2023-09-10T17:41:38.447Z,15.59
2023-09-10T17:44:05.292Z,15.53
2023-09-10T17:46:33.488Z,15.49
2023-09-10T17:49:00.315Z,15.55
2023-09-10T17:51:27.981Z,15.55
2023-09-10T17:53:54.615Z,15.55
2023-09-10T17:56:21.501Z,15.51
2023-09-10T17:58:48.275Z,15.50
2023-09-10T18:01:15.128Z,15.51
2023-09-10T18:03:44.172Z,15.50
2023-09-10T18:06:11.206Z,15.42
2023-09-10T18:08:37.919Z,15.38
2023-09-10T18:11:04.849Z,15.36
2023-09-10T18:13:31.787Z,15.27
2023-09-10T18:15:58.503Z,15.23
2023-09-10T18:18:25.823Z,15.21
2023-09-10T18:20:52.661Z,15.13
2023-09-10T18:23:19.449Z,15.12
2023-09-10T18:25:46.409Z,15.12
2023-09-10T18:28:13.115Z,15.04
2023-09-10T18:30:40.933Z,15.02
2023-09-10T18:33:09.851Z,14.96
2023-09-10T18:35:37.598Z,14.88
2023-09-10T18:38:04.650Z,14.79
2023-09-10T18:40:31.826Z,14.77
2023-09-10T18:42:58.920Z,14.78
2023-09-10T18:45:27.990Z,14.78
2023-09-10T18:47:54.788Z,14.81
2023-09-10T18:50:21.702Z,14.85
2023-09-10T18:52:50.556Z,14.87
2023-09-10T18:55:17.525Z,14.86
2023-09-10T18:57:44.286Z,14.84
2023-09-10T19:00:11.552Z,14.83
2023-09-10T19:02:39.925Z,14.81
2023-09-10T19:05:07.247Z,14.80
2023-09-10T19:07:34.050Z,14.76
2023-09-10T19:10:01.331Z,14.73
2023-09-10T19:12:28.164Z,14.72
2023-09-10T19:14:54.948Z,14.69
2023-09-10T19:17:21.697Z,14.67
2023-09-10T19:19:48.810Z,14.65
2023-09-10T19:22:15.520Z,14.70
2023-09-10T19:24:42.331Z,14.70
2023-09-10T19:27:09.105Z,14.63
2023-09-10T19:29:35.902Z,14.63
2023-09-10T19:32:03.791Z,14.61
2023-09-10T19:34:30.542Z,14.50
2023-09-10T19:36:58.498Z,14.42
2023-09-10T19:39:29.085Z,14.34
2023-09-10T19:41:58.406Z,14.30
2023-09-10T19:44:25.260Z,14.25
2023-09-10T19:46:52.118Z,14.22
2023-09-10T19:49:19.018Z,14.23
2023-09-10T19:51:49.838Z,14.25
2023-09-10T19:54:16.534Z,14.28
2023-09-10T19:56:43.331Z,14.35
2023-09-10T19:59:14.162Z,14.39
2023-09-10T20:01:43.871Z,14.39
2023-09-10T20:04:11.865Z,14.44
2023-09-10T20:06:40.325Z,14.44
2023-09-10T20:09:10.882Z,14.44
2023-09-10T20:11:38.892Z,14.43
2023-09-10T20:14:07.484Z,14.40
2023-09-10T20:16:36.001Z,14.41
2023-09-10T20:19:02.907Z,14.40
2023-09-10T20:21:29.860Z,14.38
2023-09-10T20:23:56.690Z,14.36
2023-09-10T20:26:26.611Z,14.34
2023-09-10T20:28:56.530Z,14.29
2023-09-10T20:31:23.394Z,14.27
2023-09-10T20:33:50.393Z,14.24
2023-09-10T20:36:17.269Z,14.25
2023-09-10T20:38:44.181Z,14.22
2023-09-10T20:41:14.459Z,14.20
2023-09-10T20:43:41.723Z,14.18
2023-09-10T20:46:09.268Z,14.15
2023-09-10T20:48:36.090Z,14.16
2023-09-10T20:51:05.293Z,14.14
2023-09-10T20:53:32.812Z,14.10
2023-09-10T20:55:59.719Z,14.07
2023-09-10T20:58:26.510Z,14.10
2023-09-10T21:00:53.902Z,14.11
2023-09-10T21:03:28.632Z,14.13
2023-09-10T21:06:07.460Z,14.13
2023-09-10T21:08:34.375Z,14.10
2023-09-10T21:11:05.265Z,14.06
2023-09-10T21:13:32.031Z,13.97
2023-09-10T21:15:58.770Z,13.91
2023-09-10T21:18:25.544Z,13.83
2023-09-10T21:20:53.138Z,13.80
2023-09-10T21:23:19.882Z,13.76
2023-09-10T21:25:46.697Z,13.66
2023-09-10T21:28:13.467Z,13.63
2023-09-10T21:30:40.251Z,13.59
2023-09-10T21:33:07.135Z,13.47
2023-09-10T21:35:34.142Z,13.40
2023-09-10T21:38:01.045Z,13.32
2023-09-10T21:40:27.736Z,13.35
2023-09-10T21:42:54.506Z,13.38
2023-09-10T21:45:21.245Z,13.48
2023-09-10T21:47:47.999Z,13.48
2023-09-10T21:50:14.950Z,13.36
2023-09-10T21:52:41.753Z,13.20
2023-09-10T21:55:09.080Z,13.11
2023-09-10T21:57:35.883Z,12.96
2023-09-10T22:00:04.268Z,12.92
2023-09-10T22:02:31.274Z,12.88
2023-09-10T22:04:59.254Z,12.75
2023-09-10T22:07:26.333Z,12.65
2023-09-10T22:09:55.118Z,12.57
2023-09-10T22:12:22.063Z,12.52
2023-09-10T22:14:48.896Z,12.44
2023-09-10T22:17:15.758Z,12.33
2023-09-10T22:19:43.189Z,12.26
2023-09-10T22:22:16.220Z,12.27
2023-09-10T22:24:45.389Z,12.24
2023-09-10T22:27:12.158Z,12.23
2023-09-10T22:29:39.537Z,12.12
2023-09-10T22:32:06.435Z,12.01
2023-09-10T22:34:33.947Z,12.00
2023-09-10T22:37:00.678Z,11.92
2023-09-10T22:39:27.403Z,11.87
2023-09-10T22:41:54.174Z,11.83
2023-09-10T22:44:20.964Z,11.79
2023-09-10T22:46:47.778Z,11.71
2023-09-10T22:49:14.507Z,11.57
2023-09-10T22:51:44.179Z,11.51
2023-09-10T22:54:11.358Z,11.45
2023-09-10T22:56:38.145Z,11.54
2023-09-10T22:59:04.893Z,11.58
2023-09-10T23:01:31.690Z,11.58
2023-09-10T23:03:58.571Z,11.63
2023-09-10T23:06:25.278Z,11.65
2023-09-10T23:08:52.017Z,11.67
2023-09-10T23:11:18.810Z,11.72
2023-09-10T23:13:45.613Z,11.74
2023-09-10T23:16:12.344Z,11.75
2023-09-10T23:18:39.354Z,11.79
2023-09-10T23:21:06.295Z,11.79
2023-09-10T23:23:33.079Z,11.80
2023-09-10T23:26:02.432Z,11.81
2023-09-10T23:28:29.418Z,11.84
2023-09-10T23:30:56.194Z,11.80
2023-09-10T23:33:22.971Z,11.75
2023-09-10T23:35:49.767Z,11.76
2023-09-10T23:38:16.556Z,11.76
2023-09-10T23:40:54.780Z,11.70
2023-09-10T23:43:21.622Z,11.67
2023-09-10T23:45:48.393Z,11.63
2023-09-10T23:48:18.660Z,11.52
2023-09-10T23:50:45.865Z,11.40
2023-09-10T23:53:13.228Z,11.51
2023-09-10T23:55:39.991Z,11.59
2023-09-10T23:58:07.703Z,11.51
